Time;durP1;ratioP1;P1;durP2;ratioP2;P2;SDS_P1;SDS_P2;PMS_P1;PMS_P2;Temp;Humidity;BMP_temperature;BMP_pressure;BME280_temperature;BME280_humidity;BME280_pressure;Samples;Min_cycle;Max_cycle;Signal;HPM_P1;HPM_P2
2023/02/22 00:01:34;;;;;;;63.67;21.90;;;;;;;-146.27;100.00;48443.41;5093362;28;20127;-71
2023/02/22 00:04:01;;;;;;;60.60;22.25;;;;;;;-146.27;100.00;48371.69;5088670;28;20102;-71
2023/02/22 00:06:26;;;;;;;66.25;23.85;;;;;;;-146.27;100.00;48369.72;5089079;28;20040;-71
2023/02/22 00:08:52;;;;;;;71.18;23.55;;;;;;;-146.27;100.00;48385.66;5091531;28;20150;-70
2023/02/22 00:11:19;;;;;;;68.88;23.20;;;;;;;-146.27;100.00;48359.75;5090288;28;20253;-70
2023/02/22 00:13:45;;;;;;;64.82;22.70;;;;;;;-146.27;100.00;48397.59;5088590;28;20032;-71
2023/02/22 00:16:20;;;;;;;67.72;23.65;;;;;;;-146.27;100.00;48367.72;5090363;28;20026;-71
2023/02/22 00:18:47;;;;;;;65.68;23.20;;;;;;;-146.27;100.00;48359.75;5090877;28;20042;-70
2023/02/22 00:21:14;;;;;;;71.15;23.48;;;;;;;-146.27;100.00;48399.59;5093320;28;20028;-70
2023/02/22 00:23:47;;;;;;;67.82;23.10;;;;;;;-146.27;100.00;48361.75;5078150;28;20037;-70
2023/02/22 00:26:18;;;;;;;69.45;24.42;;;;;;;-146.27;100.00;48351.78;5087991;28;20452;-70
2023/02/22 00:28:49;;;;;;;65.63;23.67;;;;;;;-146.27;100.00;48375.69;5089952;28;20107;-70
2023/02/22 00:31:15;;;;;;;69.43;23.80;;;;;;;-146.27;100.00;48339.84;5079579;28;20039;-69
2023/02/22 00:33:40;;;;;;;75.13;24.02;;;;;;;-146.27;100.00;48411.53;5086425;28;20020;-71
2023/02/22 00:36:08;;;;;;;66.53;24.45;;;;;;;-146.27;100.00;48363.75;5086463;28;20035;-70
2023/02/22 00:38:33;;;;;;;70.50;23.25;;;;;;;-146.27;100.00;48391.63;5085152;28;20498;-71
2023/02/22 00:40:58;;;;;;;72.07;24.70;;;;;;;-146.27;100.00;48387.63;5090926;28;20023;-70
2023/02/22 00:43:24;;;;;;;63.53;22.58;;;;;;;-146.27;100.00;48355.78;5091433;28;20035;-72
2023/02/22 00:45:49;;;;;;;66.30;23.73;;;;;;;-146.27;100.00;48371.69;5083547;28;20030;-71
2023/02/22 00:48:15;;;;;;;69.00;23.45;;;;;;;-146.27;100.00;48379.66;5090728;28;20063;-71
2023/02/22 00:50:40;;;;;;;74.50;23.55;;;;;;;-146.27;100.00;48379.66;5087719;28;20480;-72
2023/02/22 00:53:06;;;;;;;60.60;22.55;;;;;;;-146.27;100.00;48387.63;5082918;28;20088;-71
2023/02/22 00:55:34;;;;;;;65.43;21.85;;;;;;;-146.27;100.00;48397.59;5090263;28;20039;-71
2023/02/22 00:58:03;;;;;;;69.95;23.75;;;;;;;-146.27;100.00;48389.63;5090596;28;20024;-71
2023/02/22 01:00:34;;;;;;;61.70;22.38;;;;;;;-146.27;100.00;48363.75;5081970;28;20024;-73
2023/02/22 01:02:59;;;;;;;70.68;24.27;;;;;;;-146.27;100.00;48395.59;5084909;28;20428;-72
2023/02/22 01:05:27;;;;;;;61.22;22.55;;;;;;;-146.27;100.00;48377.69;5053333;28;1095573;-71
2023/02/22 01:07:54;;;;;;;65.80;23.35;;;;;;;-146.27;100.00;48385.66;5091640;28;20039;-70
2023/02/22 01:10:22;;;;;;;64.60;22.05;;;;;;;-146.27;100.00;48367.72;5090990;28;20031;-71
2023/02/22 01:12:48;;;;;;;60.85;22.33;;;;;;;-146.27;100.00;48357.75;5091757;28;20507;-72
2023/02/22 01:15:19;;;;;;;66.80;22.63;;;;;;;-146.27;100.00;48381.66;5091073;28;20058;-71
2023/02/22 01:17:46;;;;;;;63.30;22.88;;;;;;;-146.27;100.00;48391.63;5078424;28;20031;-72
2023/02/22 01:20:12;;;;;;;64.75;23.73;;;;;;;-146.27;100.00;48395.59;5081841;28;20031;-71
2023/02/22 01:22:41;;;;;;;60.78;22.10;;;;;;;-146.27;100.00;48343.81;5091914;28;20020;-71
2023/02/22 01:25:08;;;;;;;61.25;22.42;;;;;;;-146.27;100.00;48371.69;5091834;28;20035;-72
2023/02/22 01:27:34;;;;;;;58.78;22.08;;;;;;;-146.27;100.00;48427.47;5086002;28;20044;-72
2023/02/22 01:30:00;;;;;;;58.45;22.60;;;;;;;-146.27;100.00;48379.66;5080258;28;20028;-71
2023/02/22 01:32:25;;;;;;;67.13;23.58;;;;;;;-146.27;100.00;48375.69;5087393;28;20550;-72
2023/02/22 01:34:53;;;;;;;56.95;23.80;;;;;;;-146.27;100.00;48375.69;5088937;28;20495;-71
2023/02/22 01:37:19;;;;;;;63.25;23.67;;;;;;;-146.27;100.00;48387.63;5091803;28;20028;-73
2023/02/22 01:39:44;;;;;;;68.22;23.77;;;;;;;-146.27;100.00;48381.66;5091926;28;20074;-71
2023/02/22 01:42:10;;;;;;;59.72;23.05;;;;;;;-146.27;100.00;48403.56;5089217;28;20024;-71
2023/02/22 01:44:38;;;;;;;65.20;23.88;;;;;;;-146.27;100.00;48385.66;5090402;28;20024;-71
2023/02/22 01:47:05;;;;;;;61.75;23.00;;;;;;;-146.27;100.00;48393.63;5081470;28;20031;-71
2023/02/22 01:49:46;;;;;;;67.30;23.10;;;;;;;-146.27;100.00;48391.63;5081105;28;20050;-71
2023/02/22 01:52:16;;;;;;;72.90;24.67;;;;;;;-146.27;100.00;48373.69;5088313;28;20020;-72
2023/02/22 01:54:54;;;;;;;63.47;24.25;;;;;;;-146.27;100.00;48383.66;5092233;28;20039;-72
2023/02/22 01:57:28;;;;;;;62.58;23.13;;;;;;;-146.27;100.00;48399.59;5083898;28;20032;-71
2023/02/22 01:59:59;;;;;;;55.00;22.05;;;;;;;-146.27;100.00;48387.63;5080201;28;20433;-71
2023/02/22 02:02:26;;;;;;;58.10;24.20;;;;;;;-146.27;100.00;48353.78;5077635;28;20103;-71
2023/02/22 02:04:55;;;;;;;58.60;24.15;;;;;;;-146.27;100.00;48385.66;5079611;28;20099;-73
2023/02/22 02:07:21;;;;;;;66.15;24.60;;;;;;;-146.27;100.00;48399.59;5083678;28;20575;-71
2023/02/22 02:10:05;;;;;;;57.85;22.50;;;;;;;-146.27;100.00;48385.66;5081546;28;20194;-71
2023/02/22 02:12:34;;;;;;;68.65;25.15;;;;;;;-146.27;100.00;48393.63;5089262;28;20030;-71
2023/02/22 02:15:27;;;;;;;69.30;24.58;;;;;;;-146.27;100.00;48389.63;5088874;28;20071;-71
2023/02/22 02:17:55;;;;;;;63.53;24.13;;;;;;;-146.27;100.00;48417.50;5089940;28;20103;-71
2023/02/22 02:20:42;;;;;;;70.85;24.67;;;;;;;-146.27;100.00;48409.53;5085771;28;20064;-71
2023/02/22 02:23:18;;;;;;;70.65;26.33;;;;;;;-146.27;100.00;48395.59;5090173;28;20383;-70
2023/02/22 02:26:07;;;;;;;66.88;25.63;;;;;;;-146.27;100.00;48403.56;5091425;28;20028;-70
2023/02/22 02:29:05;;;;;;;62.92;23.50;;;;;;;-146.27;100.00;48403.56;5086503;28;20035;-71
2023/02/22 02:31:49;;;;;;;66.22;23.60;;;;;;;-146.27;100.00;48403.56;5081312;28;20029;-70
2023/02/22 02:34:23;;;;;;;;;;;;;;;-146.27;100.00;48401.56;5078278;28;20385;-68
2023/02/22 02:37:17;;;;;;;71.15;23.40;;;;;;;-146.27;100.00;48393.63;5086391;28;19916;-71
2023/02/22 02:40:10;;;;;;;65.57;24.35;;;;;;;-146.27;100.00;48429.47;5076447;28;20020;-71
2023/02/22 02:42:43;;;;;;;68.18;25.52;;;;;;;-146.27;100.00;48369.72;5072255;28;20032;-73
2023/02/22 02:45:16;;;;;;;62.20;24.65;;;;;;;-146.27;100.00;48379.66;5078746;28;20024;-70
2023/02/22 02:47:45;;;;;;;;;;;;;;;-146.27;100.00;48379.66;5079259;28;20082;-70
2023/02/22 02:50:18;;;;;;;77.78;25.77;;;;;;;-146.27;100.00;48343.81;5084616;28;20387;-70
2023/02/22 02:52:45;;;;;;;75.25;26.30;;;;;;;-146.27;100.00;48395.59;5087479;28;20035;-72
2023/02/22 02:55:12;;;;;;;68.10;24.98;;;;;;;-146.27;100.00;48403.56;5085004;28;20028;-71
2023/02/22 02:57:37;;;;;;;78.05;27.05;;;;;;;-146.27;100.00;48367.72;5086108;28;20036;-70
2023/02/22 03:00:21;;;;;;;66.30;26.38;;;;;;;-146.27;100.00;48373.69;5090608;28;20028;-71
2023/02/22 03:03:12;;;;;;;77.85;27.95;;;;;;;-146.27;100.00;48391.63;5086385;28;20102;-70
2023/02/22 03:05:58;;;;;;;75.05;26.60;;;;;;;-146.27;100.00;48417.50;5088421;28;20046;-71
2023/02/22 03:08:49;;;;;;;75.15;25.80;;;;;;;-146.27;100.00;48427.47;5081690;28;20032;-70
2023/02/22 03:11:21;;;;;;;71.00;25.63;;;;;;;-146.27;100.00;48395.59;5078446;28;20043;-71
2023/02/22 03:14:00;;;;;;;74.90;26.10;;;;;;;-146.27;100.00;48403.56;5087747;28;20135;-70
2023/02/22 03:16:36;;;;;;;65.63;24.30;;;;;;;-146.27;100.00;48391.63;5079071;28;20411;-72
2023/02/22 03:19:25;;;;;;;80.88;27.15;;;;;;;-146.27;100.00;48411.53;5082170;28;20027;-69
2023/02/22 03:22:24;;;;;;;76.88;26.83;;;;;;;-146.27;100.00;48391.63;5085193;28;20043;-71
2023/02/22 03:24:54;;;;;;;69.63;26.40;;;;;;;-146.27;100.00;48365.72;5074237;28;20035;-71
2023/02/22 03:27:26;;;;;;;78.03;26.42;;;;;;;-146.27;100.00;48379.66;5089630;28;20123;-71
2023/02/22 03:29:59;;;;;;;80.78;25.85;;;;;;;-146.27;100.00;48403.56;5079224;28;20602;-72
2023/02/22 03:32:30;;;;;;;85.00;28.20;;;;;;;-146.27;100.00;48407.56;5082633;28;20077;-71
2023/02/22 03:35:01;;;;;;;73.75;26.13;;;;;;;-146.27;100.00;48417.50;5086796;28;20036;-70
2023/02/22 03:37:33;;;;;;;72.90;26.33;;;;;;;-146.27;100.00;48399.59;5088299;28;20116;-71
2023/02/22 03:40:12;;;;;;;75.22;26.92;;;;;;;-146.27;100.00;48409.53;5092885;28;20084;-72
2023/02/22 03:42:40;;;;;;;75.18;26.63;;;;;;;-146.27;100.00;48391.63;5090178;28;20480;-70
2023/02/22 03:45:08;;;;;;;80.18;27.85;;;;;;;-146.27;100.00;48403.56;5088619;28;20349;-70
2023/02/22 03:47:42;;;;;;;69.18;26.80;;;;;;;-146.27;100.00;48399.59;5090513;28;20032;-70
2023/02/22 03:50:20;;;;;;;73.15;26.85;;;;;;;-146.27;100.00;48389.63;5086224;28;20031;-71
2023/02/22 03:52:46;;;;;;;76.00;26.92;;;;;;;-146.27;100.00;48371.69;5085053;28;20032;-71
2023/02/22 03:55:12;;;;;;;73.93;26.30;;;;;;;-146.27;100.00;48403.56;5087532;28;20162;-71
2023/02/22 03:57:42;;;;;;;69.07;26.02;;;;;;;-146.27;100.00;48389.63;5089482;28;20035;-71
2023/02/22 04:00:11;;;;;;;71.90;25.77;;;;;;;-146.27;100.00;48389.63;5092191;28;20027;-70
2023/02/22 04:02:36;;;;;;;75.40;26.45;;;;;;;-146.27;100.00;48385.66;5091582;28;20040;-72
2023/02/22 04:05:02;;;;;;;73.60;27.02;;;;;;;-146.27;100.00;48403.56;5090458;28;20020;-71
2023/02/22 04:07:27;;;;;;;79.70;28.70;;;;;;;-146.27;100.00;48401.56;5091766;28;20031;-70
2023/02/22 04:09:53;;;;;;;71.45;27.52;;;;;;;-146.27;100.00;48393.63;5093978;28;20459;-70
2023/02/22 04:12:18;;;;;;;86.30;29.17;;;;;;;-146.27;100.00;48427.47;5092415;28;20429;-70
2023/02/22 04:14:43;;;;;;;76.15;27.38;;;;;;;-146.27;100.00;48419.50;5093654;28;20541;-71
2023/02/22 04:17:09;;;;;;;83.25;29.25;;;;;;;-146.27;100.00;48371.69;5091271;28;20026;-70
2023/02/22 04:19:35;;;;;;;83.88;28.58;;;;;;;-146.27;100.00;48371.69;5092577;28;20024;-71
2023/02/22 04:22:00;;;;;;;83.50;27.33;;;;;;;-146.27;100.00;48379.66;5081484;28;20055;-71
2023/02/22 04:24:25;;;;;;;77.40;28.10;;;;;;;-146.27;100.00;48395.59;5090767;28;20073;-71
2023/02/22 04:26:51;;;;;;;86.75;28.35;;;;;;;-146.27;100.00;48347.81;5089629;28;20024;-70
2023/02/22 04:29:16;;;;;;;94.28;28.63;;;;;;;-146.27;100.00;48361.75;5092632;28;20038;-71
2023/02/22 04:31:41;;;;;;;95.03;28.80;;;;;;;-146.27;100.00;48395.59;5099018;28;20418;-71
2023/02/22 04:34:07;;;;;;;87.53;27.48;;;;;;;-146.27;100.00;48363.75;5085241;28;20034;-71
2023/02/22 04:36:32;;;;;;;92.50;30.33;;;;;;;-146.27;100.00;48375.69;5079403;28;20024;-70
2023/02/22 04:38:58;;;;;;;92.38;27.83;;;;;;;-146.27;100.00;48413.53;5084653;28;20119;-71
2023/02/22 04:41:24;;;;;;;99.60;29.40;;;;;;;-146.27;100.00;48367.72;5088416;28;20089;-71
2023/02/22 04:43:50;;;;;;;97.95;27.33;;;;;;;-146.27;100.00;48399.59;5091895;28;20024;-71
2023/02/22 04:46:15;;;;;;;91.15;27.33;;;;;;;-146.27;100.00;48407.56;5092563;28;20468;-70
2023/02/22 04:48:41;;;;;;;109.78;27.35;;;;;;;-146.27;100.00;48395.59;5079129;28;20031;-71
2023/02/22 04:51:07;;;;;;;102.22;28.40;;;;;;;-146.27;100.00;48397.59;5090188;28;20055;-70
2023/02/22 04:53:33;;;;;;;84.03;27.20;;;;;;;-146.27;100.00;48399.59;5084758;28;20039;-71
2023/02/22 04:55:58;;;;;;;133.10;29.98;;;;;;;-146.27;100.00;48373.69;5093721;28;20131;-70
2023/02/22 04:58:23;;;;;;;99.15;27.33;;;;;;;-146.27;100.00;48427.47;5074443;28;20433;-70
2023/02/22 05:00:49;;;;;;;112.53;28.73;;;;;;;-146.27;100.00;48407.56;5088534;28;20078;-70
2023/02/22 05:03:14;;;;;;;103.45;27.60;;;;;;;-146.27;100.00;48427.47;5089023;28;20085;-70
2023/02/22 05:05:40;;;;;;;107.05;27.75;;;;;;;-146.27;100.00;48423.50;5075926;28;20115;-70
2023/02/22 05:08:05;;;;;;;140.90;31.23;;;;;;;-146.27;100.00;48413.53;5076667;28;20066;-71
2023/02/22 05:10:30;;;;;;;119.90;26.13;;;;;;;-146.27;100.00;48387.63;5088662;28;20067;-71
2023/02/22 05:12:56;;;;;;;91.13;27.40;;;;;;;-146.27;100.00;48401.56;5089743;28;20024;-71
2023/02/22 05:15:24;;;;;;;130.90;27.23;;;;;;;-146.27;100.00;48419.50;5090904;28;20024;-70
2023/02/22 05:17:49;;;;;;;121.57;27.17;;;;;;;-146.27;100.00;48365.72;5087889;28;20131;-70
2023/02/22 05:20:22;;;;;;;89.43;23.90;;;;;;;-146.27;100.00;48415.53;5091046;28;20027;-71
2023/02/22 05:22:47;;;;;;;112.50;25.33;;;;;;;-146.27;100.00;48377.69;5087560;28;20036;-71
2023/02/22 05:25:12;;;;;;;110.70;23.45;;;;;;;-146.27;100.00;48423.50;5091633;28;20020;-72
2023/02/22 05:27:38;;;;;;;148.25;25.45;;;;;;;-146.27;100.00;48387.63;5091139;28;20100;-69
2023/02/22 05:30:07;;;;;;;113.68;24.60;;;;;;;-146.27;100.00;48415.53;5091830;28;20031;-72
2023/02/22 05:32:34;;;;;;;162.52;24.10;;;;;;;-146.27;100.00;48417.50;5087503;28;20080;-70
2023/02/22 05:34:59;;;;;;;145.77;22.65;;;;;;;-146.27;100.00;48353.78;5090136;28;20062;-70
2023/02/22 05:37:24;;;;;;;79.80;22.88;;;;;;;-146.27;100.00;48383.66;5081414;28;20418;-71
2023/02/22 05:39:50;;;;;;;91.53;21.42;;;;;;;-146.27;100.00;48379.66;5088886;28;20422;-72
2023/02/22 05:42:15;;;;;;;89.10;22.40;;;;;;;-146.27;100.00;48429.47;5088508;28;20391;-71
2023/02/22 05:44:40;;;;;;;69.47;21.48;;;;;;;-146.27;100.00;48413.53;5090897;28;20393;-70
2023/02/22 05:47:06;;;;;;;55.85;19.08;;;;;;;-146.27;100.00;48399.59;5091799;28;20498;-72
2023/02/22 05:49:31;;;;;;;53.70;19.15;;;;;;;-146.27;100.00;48387.63;5088645;28;20625;-70
2023/02/22 05:51:58;;;;;;;54.20;19.33;;;;;;;-146.27;100.00;48395.59;5087387;28;20704;-69
2023/02/22 05:54:24;;;;;;;67.65;19.13;;;;;;;-146.27;100.00;48391.63;5088977;28;20024;-70
2023/02/22 05:56:49;;;;;;;72.10;19.05;;;;;;;-146.27;100.00;48387.63;5089724;28;20098;-69
2023/02/22 05:59:15;;;;;;;75.38;21.17;;;;;;;-146.27;100.00;48355.78;5090111;28;20065;-69
2023/02/22 06:01:40;;;;;;;79.95;21.38;;;;;;;-146.27;100.00;48427.47;5091327;28;20020;-69
2023/02/22 06:04:05;;;;;;;101.65;21.65;;;;;;;-146.27;100.00;48379.66;5085625;28;20024;-73
2023/02/22 06:06:31;;;;;;;73.75;19.48;;;;;;;-146.27;100.00;48363.75;5081705;28;20446;-71
2023/02/22 06:08:56;;;;;;;91.90;21.02;;;;;;;-146.27;100.00;48387.63;5085641;28;20024;-71
2023/02/22 06:11:22;;;;;;;55.78;20.20;;;;;;;-146.27;100.00;48381.66;5089596;28;20031;-71
2023/02/22 06:13:50;;;;;;;80.75;22.05;;;;;;;-146.27;100.00;48383.66;5076166;28;20382;-69
2023/02/22 06:16:15;;;;;;;63.13;20.38;;;;;;;-146.27;100.00;48377.69;5078295;28;20376;-70
2023/02/22 06:18:41;;;;;;;62.28;20.15;;;;;;;-146.27;100.00;48347.81;5082156;28;20026;-70
2023/02/22 06:21:07;;;;;;;65.20;21.17;;;;;;;-146.27;100.00;48427.47;5083953;28;20475;-71
2023/02/22 06:23:33;;;;;;;63.40;21.33;;;;;;;-146.27;100.00;48419.50;5090490;28;20095;-71
2023/02/22 06:25:58;;;;;;;76.82;22.60;;;;;;;-146.27;100.00;48413.53;5074047;28;20158;-71
2023/02/22 06:28:25;;;;;;;114.40;23.73;;;;;;;-146.27;100.00;48397.59;5073487;28;20024;-71
2023/02/22 06:30:50;;;;;;;69.70;22.30;;;;;;;-146.27;100.00;48415.53;5086959;28;20024;-71
2023/02/22 06:33:16;;;;;;;88.72;23.67;;;;;;;-146.27;100.00;48379.66;5083223;28;20476;-72
2023/02/22 06:35:41;;;;;;;155.68;24.70;;;;;;;-146.27;100.00;48401.56;5086577;28;20062;-69
2023/02/22 06:38:06;;;;;;;86.05;23.13;;;;;;;-146.27;100.00;48393.63;5084457;28;20081;-71
2023/02/22 06:40:32;;;;;;;79.00;23.40;;;;;;;-146.27;100.00;48355.78;5087269;28;20067;-70
2023/02/22 06:42:58;;;;;;;73.05;23.42;;;;;;;-146.27;100.00;48343.81;5084098;28;20020;-71
2023/02/22 06:45:24;;;;;;;100.82;22.58;;;;;;;-146.27;100.00;48401.56;5088880;28;20031;-72
2023/02/22 06:47:49;;;;;;;79.38;22.98;;;;;;;-146.27;100.00;48409.53;5090176;28;20032;-70
2023/02/22 06:50:27;;;;;;;65.32;19.85;;;;;;;-146.27;100.00;48363.75;5089159;28;20023;-71
2023/02/22 06:52:53;;;;;;;61.03;20.02;;;;;;;-146.27;100.00;48351.78;5089443;28;20442;-70
2023/02/22 06:55:24;;;;;;;64.47;19.13;;;;;;;-146.27;100.00;48401.56;5086905;28;20028;-70
2023/02/22 06:57:50;;;;;;;71.13;21.08;;;;;;;-146.27;100.00;48391.63;5092070;28;20493;-69
2023/02/22 07:00:17;;;;;;;72.68;19.75;;;;;;;-146.27;100.00;48411.53;5098167;28;20037;-69
2023/02/22 07:02:44;;;;;;;75.75;20.83;;;;;;;-146.27;100.00;48427.47;5084464;28;20648;-68
2023/02/22 07:05:11;;;;;;;81.78;20.45;;;;;;;-146.27;100.00;48423.50;5087425;28;20046;-70
2023/02/22 07:07:37;;;;;;;74.63;20.65;;;;;;;-146.27;100.00;48387.63;5086240;28;20028;-69
2023/02/22 07:10:04;;;;;;;81.18;23.10;;;;;;;-146.27;100.00;48401.56;5087498;28;20425;-68
2023/02/22 07:12:30;;;;;;;78.22;22.63;;;;;;;-146.27;100.00;48447.38;5088321;28;20059;-69
2023/02/22 07:14:56;;;;;;;70.03;21.90;;;;;;;-146.27;100.00;48413.53;5083201;28;20016;-69
2023/02/22 07:17:21;;;;;;;78.15;22.45;;;;;;;-146.27;100.00;48397.59;5083707;28;20040;-69
2023/02/22 07:19:46;;;;;;;84.53;22.13;;;;;;;-146.27;100.00;48415.53;5086632;28;20035;-70
2023/02/22 07:22:12;;;;;;;108.22;23.83;;;;;;;-146.27;100.00;48391.63;5079357;28;20142;-73
2023/02/22 07:24:39;;;;;;;67.88;21.20;;;;;;;-146.27;100.00;48423.50;5085310;28;20034;-70
2023/02/22 07:27:05;;;;;;;71.07;22.33;;;;;;;-146.27;100.00;48355.78;5087224;28;20036;-70
2023/02/22 07:29:30;;;;;;;66.35;20.05;;;;;;;-146.27;100.00;48395.59;5086937;28;20040;-70
2023/02/22 07:31:56;;;;;;;67.72;20.33;;;;;;;-146.27;100.00;48379.66;5089283;28;20103;-71
2023/02/22 07:34:22;;;;;;;69.13;20.95;;;;;;;-146.27;100.00;48393.63;5093051;28;20093;-71
2023/02/22 07:36:47;;;;;;;70.85;21.05;;;;;;;-146.27;100.00;48399.59;5093035;28;20454;-70
2023/02/22 07:39:13;;;;;;;61.30;20.40;;;;;;;-146.27;100.00;48389.63;5091732;28;20074;-70
2023/02/22 07:41:39;;;;;;;94.40;24.13;;;;;;;-146.27;100.00;48407.56;5092145;28;20034;-71
2023/02/22 07:44:05;;;;;;;72.35;21.40;;;;;;;-146.27;100.00;48419.50;5092682;28;20502;-70
2023/02/22 07:46:30;;;;;;;67.90;21.95;;;;;;;-146.27;100.00;48419.50;5088065;28;20028;-70
2023/02/22 07:48:55;;;;;;;78.80;22.70;;;;;;;-146.27;100.00;48401.56;5087507;28;20048;-70
2023/02/22 07:51:20;;;;;;;59.35;21.00;;;;;;;-146.27;100.00;48415.53;5085202;28;20024;-70
2023/02/22 07:53:47;;;;;;;51.15;19.50;;;;;;;-146.27;100.00;48391.63;5082515;28;20020;-70
2023/02/22 07:56:12;;;;;;;56.13;19.10;;;;;;;-146.27;100.00;48405.56;5094673;28;20491;-70
2023/02/22 07:58:37;;;;;;;58.03;20.63;;;;;;;-146.27;100.00;48415.53;5089844;28;20021;-70
2023/02/22 08:01:03;;;;;;;53.97;18.88;;;;;;;-146.27;100.00;48361.75;5083645;28;20020;-70
2023/02/22 08:03:33;;;;;;;64.43;20.98;;;;;;;-146.27;100.00;48403.56;5094815;28;20434;-70
2023/02/22 08:05:59;;;;;;;61.33;20.48;;;;;;;-146.27;100.00;48403.56;5094217;28;20040;-70
2023/02/22 08:08:25;;;;;;;58.20;20.05;;;;;;;-146.27;100.00;48397.59;5090697;28;20036;-70
2023/02/22 08:10:51;;;;;;;61.60;21.38;;;;;;;-146.27;100.00;48385.66;5089712;28;20031;-70
2023/02/22 08:13:18;;;;;;;61.08;22.30;;;;;;;-146.27;100.00;48413.53;5094783;28;20036;-70
2023/02/22 08:15:43;;;;;;;65.57;21.45;;;;;;;-146.27;100.00;48393.63;5072251;28;20182;-70
2023/02/22 08:18:12;;;;;;;58.33;21.50;;;;;;;-146.27;100.00;48393.63;5091546;28;20023;-70
2023/02/22 08:20:40;;;;;;;57.08;20.15;;;;;;;-146.27;100.00;48375.69;5093524;28;20102;-70
2023/02/22 08:23:06;;;;;;;58.85;20.00;;;;;;;-146.27;100.00;48403.56;5085151;28;20495;-71
2023/02/22 08:25:32;;;;;;;61.03;21.42;;;;;;;-146.27;100.00;48381.66;5089008;28;20023;-69
2023/02/22 08:28:04;;;;;;;60.78;20.23;;;;;;;-146.27;100.00;48411.53;5084103;28;20103;-69
2023/02/22 08:30:31;;;;;;;60.88;20.30;;;;;;;-146.27;100.00;48399.59;5085083;28;20047;-70
2023/02/22 08:32:58;;;;;;;64.05;22.40;;;;;;;-146.27;100.00;48401.56;5091245;28;20031;-70
2023/02/22 08:35:23;;;;;;;61.40;22.98;;;;;;;-146.27;100.00;48391.63;5088911;28;20032;-69
2023/02/22 08:37:52;;;;;;;64.22;21.23;;;;;;;-146.27;100.00;48415.53;5092968;28;20538;-68
2023/02/22 08:40:20;;;;;;;58.08;20.63;;;;;;;-146.27;100.00;48389.63;5076552;28;20020;-69
2023/02/22 08:42:46;;;;;;;56.78;20.65;;;;;;;-146.27;100.00;48399.59;5086819;28;20037;-70
2023/02/22 08:45:12;;;;;;;59.22;21.60;;;;;;;-146.27;100.00;48395.59;5077661;28;20095;-70
2023/02/22 08:47:38;;;;;;;52.88;19.88;;;;;;;-146.27;100.00;48361.75;5085246;28;20437;-69
2023/02/22 08:50:04;;;;;;;58.72;21.35;;;;;;;-146.27;100.00;48359.75;5073728;28;20024;-69
2023/02/22 08:52:30;;;;;;;58.80;20.42;;;;;;;-146.27;100.00;48349.78;5076642;28;20480;-70
2023/02/22 08:54:56;;;;;;;56.33;20.02;;;;;;;-146.27;100.00;48401.56;5084744;28;20024;-71
2023/02/22 08:57:21;;;;;;;63.22;22.55;;;;;;;-146.27;100.00;48417.50;5078088;28;20027;-72
2023/02/22 08:59:46;;;;;;;60.25;21.10;;;;;;;-146.27;100.00;48381.66;5078022;28;20122;-68
2023/02/22 09:02:17;;;;;;;53.35;21.02;;;;;;;-146.27;100.00;48381.66;5074052;28;20460;-68
2023/02/22 09:04:43;;;;;;;54.40;21.33;;;;;;;-146.27;100.00;48403.56;5083222;28;20035;-69
2023/02/22 09:07:09;;;;;;;51.60;19.65;;;;;;;-146.27;100.00;48391.63;5085359;28;20044;-68
2023/02/22 09:09:34;;;;;;;47.83;19.48;;;;;;;-146.27;100.00;48375.69;5087168;28;20058;-70
2023/02/22 09:12:00;;;;;;;47.50;19.38;;;;;;;-146.27;100.00;48363.75;5083961;28;20142;-69
2023/02/22 09:14:25;;;;;;;50.67;18.63;;;;;;;-146.27;100.00;48379.66;5086616;28;20032;-69
2023/02/22 09:16:50;;;;;;;51.50;19.50;;;;;;;-146.27;100.00;48379.66;5080651;28;20027;-71
2023/02/22 09:19:16;;;;;;;49.45;20.05;;;;;;;-146.27;100.00;48381.66;5083132;28;20075;-69
2023/02/22 09:21:41;;;;;;;45.70;18.30;;;;;;;-146.27;100.00;48403.56;5089299;28;20484;-68
2023/02/22 09:24:09;;;;;;;49.60;18.50;;;;;;;-146.27;100.00;48395.59;5091594;28;20588;-69
2023/02/22 09:26:38;;;;;;;45.55;18.00;;;;;;;-146.27;100.00;48407.56;5074731;28;20031;-70
2023/02/22 09:29:08;;;;;;;45.92;19.60;;;;;;;-146.27;100.00;48395.59;5088905;28;20486;-69
2023/02/22 09:31:36;;;;;;;49.15;19.30;;;;;;;-146.27;100.00;48375.69;5086029;28;20024;-70
2023/02/22 09:34:03;;;;;;;37.42;16.92;;;;;;;-146.27;100.00;48391.63;5086281;28;20073;-70
2023/02/22 09:36:28;;;;;;;36.33;16.75;;;;;;;-146.27;100.00;48403.56;5093619;28;20063;-70
2023/02/22 09:38:53;;;;;;;39.17;17.75;;;;;;;-146.27;100.00;48377.69;5093597;28;20476;-70
2023/02/22 09:41:31;;;;;;;37.85;17.00;;;;;;;-146.27;100.00;48399.59;5088734;28;20464;-69
2023/02/22 09:44:02;;;;;;;36.25;16.80;;;;;;;-146.27;100.00;48367.72;5090036;28;20028;-69
2023/02/22 09:46:37;;;;;;;32.47;16.83;;;;;;;-146.27;100.00;48393.63;5081490;28;20024;-69
2023/02/22 09:49:05;;;;;;;37.90;15.95;;;;;;;-146.27;100.00;48375.69;5076865;28;20024;-69
2023/02/22 09:51:42;;;;;;;35.45;16.23;;;;;;;-146.27;100.00;48387.63;5088934;28;20480;-70
2023/02/22 09:54:42;;;;;;;36.88;17.75;;;;;;;-146.27;100.00;48423.50;5084738;28;20024;-71
2023/02/22 09:57:15;;;;;;;35.53;16.85;;;;;;;-146.27;100.00;48411.53;5076886;28;20400;-69
2023/02/22 10:00:12;;;;;;;33.17;16.65;;;;;;;-146.27;100.00;48385.66;5079352;28;20024;-69
2023/02/22 10:02:47;;;;;;;36.75;16.67;;;;;;;-146.27;100.00;48403.56;5083670;28;20094;-70
2023/02/22 10:05:19;;;;;;;38.25;17.02;;;;;;;-146.27;100.00;48381.66;5077214;28;20063;-70
2023/02/22 10:08:09;;;;;;;34.88;16.15;;;;;;;-146.27;100.00;48387.63;5076410;28;20028;-68
2023/02/22 10:10:38;;;;;;;35.22;16.75;;;;;;;-146.27;100.00;48379.66;5085490;28;20162;-68
2023/02/22 10:13:31;;;;;;;31.40;15.45;;;;;;;-146.27;100.00;48413.53;5092687;28;20078;-69
2023/02/22 10:16:25;;;;;;;39.45;16.42;;;;;;;-146.27;100.00;48387.63;5090589;28;20028;-68
2023/02/22 10:18:53;;;;;;;34.35;16.48;;;;;;;-146.27;100.00;48367.72;5085941;28;20020;-70
2023/02/22 10:21:46;;;;;;;36.08;16.80;;;;;;;-146.27;100.00;48399.59;5084868;28;20402;-69
2023/02/22 10:24:37;;;;;;;31.08;15.80;;;;;;;-146.27;100.00;48395.59;5071965;28;20075;-70
2023/02/22 10:27:06;;;;;;;33.90;17.00;;;;;;;-146.27;100.00;48409.53;5072229;28;20039;-70
2023/02/22 10:29:45;;;;;;;34.78;17.80;;;;;;;-146.27;100.00;48365.72;5072643;28;20028;-69
2023/02/22 10:32:20;;;;;;;35.85;16.65;;;;;;;-146.27;100.00;48367.72;5091886;28;20484;-69
2023/02/22 10:34:50;;;;;;;38.00;16.60;;;;;;;-146.27;100.00;48403.56;5079372;28;20025;-69
2023/02/22 10:37:28;;;;;;;34.67;16.95;;;;;;;-146.27;100.00;48407.56;5078061;28;20028;-70
2023/02/22 10:40:19;;;;;;;34.20;15.85;;;;;;;-146.27;100.00;48395.59;5070655;28;20490;-69
2023/02/22 10:42:46;;;;;;;31.85;15.75;;;;;;;-146.27;100.00;48401.56;5072384;28;20036;-70
2023/02/22 10:45:34;;;;;;;32.38;15.77;;;;;;;-146.27;100.00;48377.69;5081283;28;20421;-69
2023/02/22 10:48:07;;;;;;;32.95;16.17;;;;;;;-146.27;100.00;48367.72;5072100;28;20024;-69
2023/02/22 10:50:36;;;;;;;33.05;17.40;;;;;;;-146.27;100.00;48383.66;5071956;28;20036;-69
2023/02/22 10:53:01;;;;;;;36.55;17.30;;;;;;;-146.27;100.00;48345.81;5081862;28;20036;-69
2023/02/22 10:55:27;;;;;;;31.05;15.27;;;;;;;-146.27;100.00;48403.56;5071891;28;20046;-70
2023/02/22 10:58:00;;;;;;;33.38;15.90;;;;;;;-146.27;100.00;48373.69;5071949;28;20012;-70
2023/02/22 11:00:36;;;;;;;31.77;15.55;;;;;;;-146.27;100.00;48363.75;5075854;28;20020;-69
2023/02/22 11:03:24;;;;;;;28.75;15.77;;;;;;;-146.27;100.00;48395.59;5073973;28;20028;-70
2023/02/22 11:05:51;;;;;;;29.92;15.55;;;;;;;-146.27;100.00;48351.78;5082918;28;20055;-70